Time;durP1;ratioP1;P1;durP2;ratioP2;P2;SDS_P1;SDS_P2;PMS_P1;PMS_P2;Temp;Humidity;BMP_temperature;BMP_pressure;BME280_temperature;BME280_humidity;BME280_pressure;Samples;Min_cycle;Max_cycle;Signal;HPM_P1;HPM_P2
2021/11/11 00:00:08;;;;;;;24.02;16.55;;;;;;;;;;5100243;28;20047;-88
2021/11/11 00:02:34;;;;;;;23.70;15.93;;;;;;;;;;5100644;28;20035;-88
2021/11/11 00:05:00;;;;;;;21.58;14.65;;;;;;;;;;5096909;28;20029;-87
2021/11/11 00:07:26;;;;;;;25.10;16.23;;;;;;;;;;5080475;28;20385;-88
2021/11/11 00:09:53;;;;;;;26.45;16.38;;;;;;;;;;5080111;28;20056;-88
2021/11/11 00:12:19;;;;;;;24.55;15.10;;;;;;;;;;5080458;28;20025;-87
2021/11/11 00:14:46;;;;;;;22.42;14.30;;;;;;;;;;5079885;28;20044;-87
2021/11/11 00:17:12;;;;;;;21.33;14.27;;;;;;;;;;5079242;28;20020;-88
2021/11/11 00:19:38;;;;;;;19.88;13.98;;;;;;;;;;5080427;28;20016;-87
2021/11/11 00:22:04;;;;;;;20.50;14.77;;;;;;;;;;5093157;28;20043;-87
2021/11/11 00:24:30;;;;;;;21.77;14.90;;;;;;;;;;5080025;28;20033;-88
2021/11/11 00:26:56;;;;;;;21.00;14.07;;;;;;;;;;5079944;28;20036;-88
2021/11/11 00:29:23;;;;;;;18.13;13.70;;;;;;;;;;5079837;28;20058;-88
2021/11/11 00:31:49;;;;;;;19.13;12.50;;;;;;;;;;5094435;28;20036;-89
2021/11/11 00:34:15;;;;;;;18.73;13.77;;;;;;;;;;5090386;28;20028;-88
2021/11/11 00:36:41;;;;;;;20.65;13.70;;;;;;;;;;5078882;28;20099;-88
2021/11/11 00:39:07;;;;;;;18.75;12.10;;;;;;;;;;5079811;28;20020;-89
2021/11/11 00:41:34;;;;;;;17.45;12.45;;;;;;;;;;5079968;28;20035;-88
2021/11/11 00:44:00;;;;;;;19.55;12.75;;;;;;;;;;5078687;28;20023;-88
2021/11/11 00:46:27;;;;;;;17.17;12.70;;;;;;;;;;5088591;28;20028;-88
2021/11/11 00:48:53;;;;;;;17.67;12.73;;;;;;;;;;5079577;28;20024;-88
2021/11/11 00:51:19;;;;;;;20.65;14.65;;;;;;;;;;5093873;28;20326;-88
2021/11/11 00:53:45;;;;;;;22.33;15.00;;;;;;;;;;5099784;28;20103;-89
2021/11/11 00:56:12;;;;;;;22.40;13.82;;;;;;;;;;5099955;28;20036;-88
2021/11/11 00:58:38;;;;;;;19.73;14.63;;;;;;;;;;5099740;28;20028;-88
2021/11/11 01:01:04;;;;;;;18.83;13.98;;;;;;;;;;5099660;28;20027;-87
2021/11/11 01:03:39;;;;;;;20.05;13.75;;;;;;;;;;5098556;28;20020;-88
2021/11/11 01:06:05;;;;;;;18.27;13.35;;;;;;;;;;5099743;28;20051;-87
2021/11/11 01:08:32;;;;;;;19.23;13.80;;;;;;;;;;5083930;28;20398;-87
2021/11/11 01:11:00;;;;;;;18.60;13.23;;;;;;;;;;5079080;28;20029;-87
2021/11/11 01:13:26;;;;;;;20.48;13.80;;;;;;;;;;5078589;28;20031;-87
2021/11/11 01:15:52;;;;;;;19.10;13.85;;;;;;;;;;5078605;28;20052;-88
2021/11/11 01:18:21;;;;;;;22.98;13.60;;;;;;;;;;5079183;28;20025;-87
2021/11/11 01:20:47;;;;;;;20.52;13.82;;;;;;;;;;5078158;28;20024;-87
2021/11/11 01:23:13;;;;;;;17.75;12.88;;;;;;;;;;5078926;28;20048;-87
2021/11/11 01:28:43;;;;;;;18.40;12.18;;;;;;;;;;5078690;28;20063;-87
2021/11/11 01:31:09;;;;;;;18.08;12.90;;;;;;;;;;5086165;28;20028;-87
2021/11/11 01:33:35;;;;;;;17.98;13.18;;;;;;;;;;5078510;28;20414;-87
2021/11/11 01:36:01;;;;;;;18.02;13.13;;;;;;;;;;5078945;28;20091;-88
2021/11/11 01:38:27;;;;;;;17.92;12.63;;;;;;;;;;5078591;28;20024;-88
2021/11/11 01:43:57;;;;;;;18.35;12.25;;;;;;;;;;5098898;28;20023;-87
2021/11/11 01:46:23;;;;;;;16.27;12.38;;;;;;;;;;5098770;28;20025;-88
2021/11/11 01:48:49;;;;;;;20.08;12.63;;;;;;;;;;5097672;28;20115;-87
2021/11/11 01:51:16;;;;;;;18.33;12.18;;;;;;;;;;5098153;28;20398;-87
2021/11/11 01:53:43;;;;;;;16.63;11.52;;;;;;;;;;5098480;28;20036;-88
2021/11/11 01:59:13;;;;;;;20.05;12.52;;;;;;;;;;5098830;28;20035;-88
2021/11/11 02:01:40;;;;;;;16.77;11.70;;;;;;;;;;5098524;28;20015;-88
2021/11/11 02:04:06;;;;;;;15.82;11.80;;;;;;;;;;5098338;28;20024;-88
2021/11/11 02:06:32;;;;;;;16.83;11.73;;;;;;;;;;5094513;28;20039;-88
2021/11/11 02:08:58;;;;;;;16.23;11.40;;;;;;;;;;5078352;28;20026;-88
2021/11/11 02:14:28;;;;;;;15.57;11.50;;;;;;;;;;5098291;28;20085;-89
2021/11/11 02:16:54;;;;;;;17.45;12.52;;;;;;;;;;5098175;28;20102;-88
2021/11/11 02:19:21;;;;;;;16.35;11.75;;;;;;;;;;5098236;28;20024;-88
2021/11/11 02:21:51;;;;;;;16.90;11.68;;;;;;;;;;5089372;28;20032;-87
2021/11/11 02:24:17;;;;;;;15.20;11.30;;;;;;;;;;5077693;28;20024;-87
2021/11/11 02:26:43;;;;;;;18.70;11.85;;;;;;;;;;5077184;28;20071;-88
2021/11/11 02:29:09;;;;;;;16.05;11.70;;;;;;;;;;5076856;28;20032;-87
2021/11/11 02:31:35;;;;;;;16.70;12.68;;;;;;;;;;5076733;28;20030;-87
2021/11/11 02:34:01;;;;;;;15.93;11.30;;;;;;;;;;5077537;28;20421;-87
2021/11/11 02:36:27;;;;;;;15.50;11.50;;;;;;;;;;5077838;28;20025;-87
2021/11/11 02:38:54;;;;;;;14.98;10.57;;;;;;;;;;5077507;28;20031;-88
2021/11/11 02:44:24;;;;;;;18.17;11.90;;;;;;;;;;5086516;28;20035;-88
2021/11/11 02:46:51;;;;;;;17.83;11.50;;;;;;;;;;5086421;28;20033;-88
2021/11/11 02:49:17;;;;;;;16.20;11.52;;;;;;;;;;5076529;28;20024;-88
2021/11/11 02:51:44;;;;;;;17.38;12.13;;;;;;;;;;5077647;28;20035;-87
2021/11/11 02:54:10;;;;;;;18.00;11.73;;;;;;;;;;5097430;28;20073;-88
2021/11/11 02:56:36;;;;;;;18.33;11.38;;;;;;;;;;5096788;28;20020;-87
2021/11/11 02:59:02;;;;;;;17.55;12.25;;;;;;;;;;5097471;28;20059;-87
2021/11/11 03:01:28;;;;;;;18.42;12.48;;;;;;;;;;5098211;28;20017;-88
2021/11/11 03:03:54;;;;;;;16.83;11.38;;;;;;;;;;5101864;28;20027;-88
2021/11/11 03:06:20;;;;;;;16.70;11.45;;;;;;;;;;5101890;28;20066;-87
2021/11/11 03:08:46;;;;;;;14.20;10.93;;;;;;;;;;5100854;28;20020;-88
2021/11/11 03:11:12;;;;;;;16.23;11.18;;;;;;;;;;5100903;28;20055;-88
2021/11/11 03:13:39;;;;;;;14.25;10.90;;;;;;;;;;5101618;28;20016;-87
2021/11/11 03:16:05;;;;;;;15.00;10.82;;;;;;;;;;5101653;28;20032;-87
2021/11/11 03:18:31;;;;;;;16.67;11.15;;;;;;;;;;5101653;28;20032;-87
2021/11/11 03:20:57;;;;;;;15.07;10.82;;;;;;;;;;5101656;28;20073;-88
2021/11/11 03:23:23;;;;;;;14.50;10.60;;;;;;;;;;5085720;28;20333;-87
2021/11/11 03:25:50;;;;;;;16.15;11.30;;;;;;;;;;5081233;28;20302;-87
2021/11/11 03:28:16;;;;;;;25.00;14.00;;;;;;;;;;5080500;28;20430;-87
2021/11/11 03:30:42;;;;;;;26.67;17.40;;;;;;;;;;5080803;28;20469;-87
2021/11/11 03:33:09;;;;;;;27.65;17.40;;;;;;;;;;5079915;28;20047;-88
2021/11/11 03:35:35;;;;;;;20.63;13.77;;;;;;;;;;5080872;28;20030;-87
2021/11/11 03:38:03;;;;;;;19.58;12.55;;;;;;;;;;5081079;28;20020;-88
2021/11/11 03:41:06;;;;;;;16.70;12.25;;;;;;;;;;5080893;28;20291;-88
2021/11/11 03:43:32;;;;;;;;;;;;;;;;;;5093642;28;20032;-88
2021/11/11 03:45:58;;;;;;;16.95;11.18;;;;;;;;;;5101328;28;19911;-87
2021/11/11 03:48:24;;;;;;;19.05;12.35;;;;;;;;;;5100258;28;20060;-88
2021/11/11 03:50:50;;;;;;;15.30;10.85;;;;;;;;;;5100933;28;20054;-88
2021/11/11 03:53:17;;;;;;;15.70;11.38;;;;;;;;;;5096089;28;20036;-88
2021/11/11 03:55:43;;;;;;;19.27;12.45;;;;;;;;;;5080757;28;20024;-88
2021/11/11 03:58:15;;;;;;;18.25;12.30;;;;;;;;;;5079913;28;20036;-89
2021/11/11 04:00:41;;;;;;;23.45;15.82;;;;;;;;;;5080688;28;20033;-88
2021/11/11 04:03:07;;;;;;;26.52;16.80;;;;;;;;;;5080667;28;20326;-88
2021/11/11 04:05:34;;;;;;;24.08;15.48;;;;;;;;;;5080290;28;20024;-90
2021/11/11 04:08:00;;;;;;;22.63;15.20;;;;;;;;;;5080328;28;20433;-88
2021/11/11 04:10:26;;;;;;;21.67;15.02;;;;;;;;;;5091554;28;20020;-89
2021/11/11 04:12:52;;;;;;;23.67;15.10;;;;;;;;;;5099982;28;20028;-89
2021/11/11 04:15:18;;;;;;;19.30;13.00;;;;;;;;;;5100458;28;20419;-88
2021/11/11 04:17:44;;;;;;;17.50;12.50;;;;;;;;;;5100409;28;20044;-87
2021/11/11 04:20:11;;;;;;;17.85;11.48;;;;;;;;;;5101092;28;20289;-87
2021/11/11 04:22:37;;;;;;;22.98;11.80;;;;;;;;;;5099428;28;20513;-87
2021/11/11 04:25:05;;;;;;;15.27;11.18;;;;;;;;;;5099487;28;20032;-87
2021/11/11 04:27:59;;;;;;;17.02;11.10;;;;;;;;;;5100497;28;20350;-87
2021/11/11 04:30:30;;;;;;;17.25;11.32;;;;;;;;;;5100164;28;20032;-88
2021/11/11 04:32:56;;;;;;;20.40;12.55;;;;;;;;;;5089734;28;20354;-88
2021/11/11 04:35:22;;;;;;;21.08;12.18;;;;;;;;;;5080079;28;20052;-89
2021/11/11 04:38:18;;;;;;;20.65;12.35;;;;;;;;;;5079960;28;20051;-88
2021/11/11 05:06:01;;;;;;;32.67;16.48;;;;;;;;;;5079266;28;20024;-88
2021/11/11 05:08:27;;;;;;;31.98;15.32;;;;;;;;;;5078323;28;20478;-88
2021/11/11 05:10:53;;;;;;;39.45;19.90;;;;;;;;;;5078449;28;20103;-88
2021/11/11 05:13:20;;;;;;;62.20;28.27;;;;;;;;;;5079365;28;20028;-88
2021/11/11 05:15:46;;;;;;;60.83;31.23;;;;;;;;;;5078044;28;20068;-87
2021/11/11 05:18:12;;;;;;;69.72;32.35;;;;;;;;;;5078188;28;20029;-87
2021/11/11 05:20:38;;;;;;;52.15;28.45;;;;;;;;;;5089404;28;20057;-88
2021/11/11 05:23:04;;;;;;;45.00;25.95;;;;;;;;;;5099206;28;20027;-87
2021/11/11 05:25:30;;;;;;;34.78;22.52;;;;;;;;;;5097335;28;20028;-87
2021/11/11 05:27:56;;;;;;;28.58;20.75;;;;;;;;;;5099416;28;20051;-87
2021/11/11 05:30:23;;;;;;;30.98;20.55;;;;;;;;;;5094250;28;20048;-87
2021/11/11 05:32:49;;;;;;;24.05;16.70;;;;;;;;;;5099121;28;20070;-87
2021/11/11 05:35:15;;;;;;;20.30;14.73;;;;;;;;;;5081392;28;20033;-87
2021/11/11 05:37:42;;;;;;;18.27;13.77;;;;;;;;;;5078564;28;20021;-88
2021/11/11 05:40:09;;;;;;;22.45;14.68;;;;;;;;;;5078199;28;20028;-87
2021/11/11 05:42:54;;;;;;;33.38;17.42;;;;;;;;;;5098811;28;20012;-87
2021/11/11 05:45:21;;;;;;;50.47;24.98;;;;;;;;;;5098594;28;20405;-87
2021/11/11 05:47:47;;;;;;;40.03;21.58;;;;;;;;;;5098666;28;20462;-87
2021/11/11 05:50:14;;;;;;;40.50;18.55;;;;;;;;;;5098820;28;20077;-88
2021/11/11 05:52:40;;;;;;;22.58;15.35;;;;;;;;;;5098447;28;20020;-88
2021/11/11 05:55:07;;;;;;;24.15;14.55;;;;;;;;;;5097862;28;20028;-87
2021/11/11 05:57:33;;;;;;;21.73;13.77;;;;;;;;;;5084803;28;20024;-88
2021/11/11 05:59:59;;;;;;;21.55;14.30;;;;;;;;;;5077248;28;20031;-88
2021/11/11 06:02:25;;;;;;;24.48;15.57;;;;;;;;;;5077321;28;20032;-88
2021/11/11 06:04:51;;;;;;;21.13;14.98;;;;;;;;;;5078454;28;20029;-88
2021/11/11 06:07:17;;;;;;;26.58;15.40;;;;;;;;;;5077483;28;20068;-88
2021/11/11 06:09:43;;;;;;;21.67;14.73;;;;;;;;;;5077914;28;20123;-87
2021/11/11 06:15:13;;;;;;;24.48;14.10;;;;;;;;;;5077796;28;20047;-88
2021/11/11 06:17:39;;;;;;;26.23;14.65;;;;;;;;;;5078234;28;20021;-88
2021/11/11 06:20:15;;;;;;;24.45;15.57;;;;;;;;;;5077907;28;20024;-88
2021/11/11 06:22:45;;;;;;;33.88;20.38;;;;;;;;;;5077027;28;20047;-89
2021/11/11 06:25:12;;;;;;;50.10;25.88;;;;;;;;;;5076877;28;20024;-88
2021/11/11 06:33:45;;;;;;;59.60;30.05;;;;;;;;;;5098198;28;20030;-86
2021/11/11 06:36:12;;;;;;;43.60;25.45;;;;;;;;;;5097637;28;20024;-87
2021/11/11 06:38:38;;;;;;;35.15;22.20;;;;;;;;;;5097276;28;20033;-87
2021/11/11 06:43:49;;;;;;;30.25;22.45;;;;;;;;;;5096267;28;20424;-88
2021/11/11 06:46:15;;;;;;;31.83;22.70;;;;;;;;;;5077592;28;20108;-89
2021/11/11 06:48:42;;;;;;;28.73;20.88;;;;;;;;;;5077730;28;20315;-88
2021/11/11 06:51:08;;;;;;;32.50;20.67;;;;;;;;;;5076521;28;20040;-88
2021/11/11 06:53:34;;;;;;;31.27;19.75;;;;;;;;;;5076651;28;20127;-87
2021/11/11 06:56:01;;;;;;;34.40;20.70;;;;;;;;;;5077113;28;20099;-87
2021/11/11 06:58:27;;;;;;;27.98;18.48;;;;;;;;;;5077515;28;20047;-87
2021/11/11 07:00:56;;;;;;;28.23;18.30;;;;;;;;;;5076516;28;20035;-87
2021/11/11 07:03:22;;;;;;;27.88;17.80;;;;;;;;;;5077599;28;20062;-85
2021/11/11 07:05:48;;;;;;;29.55;19.35;;;;;;;;;;5076537;28;20040;-85
2021/11/11 07:08:15;;;;;;;28.30;18.40;;;;;;;;;;5076113;28;20033;-89
2021/11/11 07:10:42;;;;;;;33.15;18.33;;;;;;;;;;5076762;28;20036;-85
2021/11/11 07:16:12;;;;;;;34.58;21.38;;;;;;;;;;5070884;28;20059;-86
2021/11/11 07:18:38;;;;;;;41.53;22.80;;;;;;;;;;5076231;28;20330;-86
2021/11/11 07:21:04;;;;;;;37.72;24.08;;;;;;;;;;5076524;28;20025;-85
2021/11/11 07:23:30;;;;;;;38.60;20.45;;;;;;;;;;5076279;28;20033;-86
2021/11/11 07:25:56;;;;;;;31.98;19.42;;;;;;;;;;5077519;28;20028;-86
2021/11/11 07:31:26;;;;;;;47.63;24.15;;;;;;;;;;5077412;28;20158;-85
2021/11/11 07:33:53;;;;;;;38.92;21.20;;;;;;;;;;5077457;28;20031;-86
2021/11/11 07:36:19;;;;;;;36.90;20.52;;;;;;;;;;5076318;28;20024;-86
2021/11/11 07:38:45;;;;;;;35.78;18.05;;;;;;;;;;5077179;28;20020;-86
2021/11/11 07:41:12;;;;;;;27.70;16.55;;;;;;;;;;5076072;28;20020;-86
2021/11/11 07:43:38;;;;;;;25.60;16.52;;;;;;;;;;5076057;28;20025;-86
2021/11/11 07:46:06;;;;;;;30.15;18.13;;;;;;;;;;5077315;28;20021;-86
2021/11/11 07:48:32;;;;;;;26.25;14.95;;;;;;;;;;5077655;28;20063;-86
2021/11/11 07:51:00;;;;;;;24.38;15.50;;;;;;;;;;5079744;28;20025;-86
2021/11/11 07:53:26;;;;;;;21.88;15.13;;;;;;;;;;5080421;28;20407;-87
2021/11/11 07:55:52;;;;;;;23.88;15.10;;;;;;;;;;5080412;28;20064;-86
2021/11/11 07:58:18;;;;;;;27.00;16.63;;;;;;;;;;5080765;28;20036;-87
2021/11/11 08:00:45;;;;;;;25.13;15.23;;;;;;;;;;5079405;28;20440;-87
2021/11/11 08:03:12;;;;;;;25.88;16.42;;;;;;;;;;5079584;28;20033;-87
2021/11/11 08:05:39;;;;;;;29.55;17.02;;;;;;;;;;5079624;28;20025;-87
2021/11/11 08:08:05;;;;;;;30.08;16.65;;;;;;;;;;5079847;28;20055;-87
2021/11/11 08:10:32;;;;;;;23.75;15.18;;;;;;;;;;5080654;28;20100;-87
2021/11/11 08:12:58;;;;;;;26.42;16.48;;;;;;;;;;5079313;28;20029;-86
2021/11/11 08:15:24;;;;;;;27.30;15.05;;;;;;;;;;5079418;28;20055;-87
2021/11/11 08:17:50;;;;;;;33.25;18.33;;;;;;;;;;5080092;28;20104;-83
2021/11/11 08:20:17;;;;;;;26.92;16.83;;;;;;;;;;5079219;28;20028;-84
2021/11/11 08:22:43;;;;;;;23.90;15.25;;;;;;;;;;5079893;28;20021;-84
2021/11/11 08:25:11;;;;;;;28.17;16.77;;;;;;;;;;5079722;28;20426;-83
2021/11/11 08:27:37;;;;;;;27.85;17.20;;;;;;;;;;5079663;28;20024;-84
2021/11/11 08:30:04;;;;;;;37.78;19.67;;;;;;;;;;5079589;28;20120;-83
2021/11/11 08:32:31;;;;;;;35.35;18.20;;;;;;;;;;5078689;28;20409;-83
2021/11/11 08:34:57;;;;;;;33.35;19.02;;;;;;;;;;5079498;28;20029;-83
2021/11/11 08:37:23;;;;;;;30.83;17.27;;;;;;;;;;5079591;28;20031;-86
2021/11/11 08:39:49;;;;;;;32.13;17.00;;;;;;;;;;5080189;28;20043;-86
2021/11/11 08:42:16;;;;;;;25.95;15.60;;;;;;;;;;5079109;28;20028;-86
2021/11/11 08:44:43;;;;;;;24.15;14.45;;;;;;;;;;5079628;28;20035;-86
2021/11/11 08:47:13;;;;;;;23.10;14.50;;;;;;;;;;5080058;28;20323;-86
2021/11/11 08:49:40;;;;;;;22.70;14.15;;;;;;;;;;5079836;28;20036;-87
2021/11/11 08:52:07;;;;;;;20.85;13.20;;;;;;;;;;5078711;28;20098;-85
2021/11/11 08:54:33;;;;;;;25.48;14.32;;;;;;;;;;5078363;28;20066;-86
2021/11/11 08:56:59;;;;;;;25.08;13.35;;;;;;;;;;5078718;28;20025;-86
2021/11/11 08:59:25;;;;;;;21.15;12.57;;;;;;;;;;5079759;28;20112;-86
2021/11/11 09:01:52;;;;;;;20.27;12.07;;;;;;;;;;5078723;28;20063;-86
2021/11/11 09:04:18;;;;;;;17.50;12.40;;;;;;;;;;5079265;28;20108;-85
2021/11/11 09:06:45;;;;;;;20.15;12.48;;;;;;;;;;5079244;28;20418;-86
2021/11/11 09:09:12;;;;;;;17.45;12.20;;;;;;;;;;5079357;28;20100;-86
2021/11/11 09:11:39;;;;;;;23.35;13.15;;;;;;;;;;5079472;28;20025;-84
2021/11/11 09:20:27;;;;;;;20.42;12.90;;;;;;;;;;5074095;28;20070;-85
2021/11/11 09:22:54;;;;;;;22.73;14.35;;;;;;;;;;5079246;28;20033;-85
2021/11/11 09:25:20;;;;;;;22.95;14.85;;;;;;;;;;5078136;28;20218;-85
2021/11/11 09:30:50;;;;;;;20.63;12.77;;;;;;;;;;5078825;28;20040;-89
2021/11/11 09:33:16;;;;;;;22.00;13.70;;;;;;;;;;5079072;28;20367;-86
2021/11/11 09:35:42;;;;;;;17.95;12.18;;;;;;;;;;5078904;28;20032;-86
2021/11/11 09:38:08;;;;;;;28.70;16.50;;;;;;;;;;5078057;28;20066;-85
2021/11/11 09:40:34;;;;;;;20.27;13.30;;;;;;;;;;5078970;28;20016;-86
2021/11/11 09:43:01;;;;;;;21.50;14.75;;;;;;;;;;5078584;28;20094;-86
2021/11/11 09:45:29;;;;;;;25.70;14.07;;;;;;;;;;5077561;28;20020;-86
2021/11/11 09:47:55;;;;;;;26.65;15.98;;;;;;;;;;5078264;28;20030;-83
2021/11/11 09:50:23;;;;;;;32.97;19.90;;;;;;;;;;5078340;28;20040;-85
2021/11/11 09:52:51;;;;;;;29.88;18.23;;;;;;;;;;5078429;28;20024;-87
2021/11/11 10:00:49;;;;;;;21.50;12.10;;;;;;;;;;5077864;28;20059;-80
2021/11/11 10:03:16;;;;;;;17.95;11.88;;;;;;;;;;5077684;28;20411;-80
2021/11/11 10:05:42;;;;;;;26.50;16.13;;;;;;;;;;5077518;28;20063;-81
2021/11/11 10:08:29;;;;;;;19.23;11.38;;;;;;;;;;5077165;28;20055;-80
2021/11/11 10:10:55;;;;;;;19.52;12.50;;;;;;;;;;5077216;28;20024;-80
2021/11/11 10:13:22;;;;;;;19.92;10.68;;;;;;;;;;5077598;28;20025;-80
2021/11/11 10:16:06;;;;;;;16.20;9.93;;;;;;;;;;5077564;28;20079;-80
2021/11/11 10:18:38;;;;;;;15.35;9.05;;;;;;;;;;5077349;28;20099;-79
2021/11/11 10:21:18;;;;;;;17.88;10.13;;;;;;;;;;5077378;28;20029;-80
2021/11/11 10:23:44;;;;;;;17.60;9.48;;;;;;;;;;5076183;28;20024;-80
2021/11/11 10:26:21;;;;;;;19.70;10.63;;;;;;;;;;5076260;28;20425;-80
2021/11/11 10:28:47;;;;;;;15.20;9.35;;;;;;;;;;5076044;28;20032;-80
2021/11/11 10:31:18;;;;;;;17.13;10.10;;;;;;;;;;5076228;28;20041;-80
2021/11/11 10:34:04;;;;;;;18.70;10.18;;;;;;;;;;5076074;28;20025;-80
2021/11/11 10:36:53;;;;;;;17.38;9.63;;;;;;;;;;5035283;28;20037;-80
2021/11/11 10:39:24;;;;;;;18.02;11.13;;;;;;;;;;5035337;28;20033;-80
2021/11/11 10:41:51;;;;;;;16.95;10.30;;;;;;;;;;5035247;28;20217;-80
2021/11/11 10:44:19;;;;;;;17.00;10.60;;;;;;;;;;5018601;28;20033;-80
2021/11/11 10:46:51;;;;;;;14.25;9.35;;;;;;;;;;5035113;28;20037;-80
2021/11/11 10:49:21;;;;;;;20.00;11.15;;;;;;;;;;5035273;28;20351;-80
2021/11/11 10:51:47;;;;;;;14.20;9.73;;;;;;;;;;5035045;28;20037;-79
2021/11/11 10:54:13;;;;;;;19.13;10.57;;;;;;;;;;5035190;28;20048;-80
2021/11/11 10:56:44;;;;;;;18.38;10.00;;;;;;;;;;5035038;28;20109;-79
2021/11/11 10:59:12;;;;;;;20.65;11.32;;;;;;;;;;5034670;28;20021;-80
2021/11/11 11:01:39;;;;;;;18.88;11.82;;;;;;;;;;5035012;28;20037;-80
2021/11/11 11:04:05;;;;;;;27.38;13.45;;;;;;;;;;5035144;28;20026;-80
2021/11/11 11:06:33;;;;;;;22.80;12.57;;;;;;;;;;5018506;28;20100;-80
2021/11/11 11:09:00;;;;;;;25.95;13.10;;;;;;;;;;5035081;28;20079;-80
2021/11/11 11:11:32;;;;;;;18.65;11.48;;;;;;;;;;5018407;28;20120;-79
2021/11/11 11:14:00;;;;;;;22.08;12.50;;;;;;;;;;5062925;28;20124;-80
2021/11/11 11:16:35;;;;;;;21.00;11.80;;;;;;;;;;5076767;28;20082;-80
2021/11/11 11:19:04;;;;;;;25.40;13.32;;;;;;;;;;5076653;28;20041;-80
2021/11/11 11:21:30;;;;;;;24.98;13.13;;;;;;;;;;5075594;28;20426;-79
2021/11/11 11:24:01;;;;;;;21.65;12.27;;;;;;;;;;5079219;28;20021;-80
2021/11/11 11:26:38;;;;;;;16.10;9.60;;;;;;;;;;5080625;28;20303;-79
2021/11/11 11:32:05;;;;;;;13.88;8.45;;;;;;;;;;5078788;28;20120;-79
2021/11/11 11:34:35;;;;;;;21.33;11.40;;;;;;;;;;5061662;28;20127;-79
2021/11/11 11:37:06;;;;;;;18.50;9.93;;;;;;;;;;5078468;28;20032;-79
2021/11/11 11:39:34;;;;;;;16.83;10.57;;;;;;;;;;5078453;28;20031;-79
2021/11/11 11:42:08;;;;;;;14.60;9.02;;;;;;;;;;5061686;28;20114;-79
2021/11/11 11:44:42;;;;;;;13.90;8.65;;;;;;;;;;5078280;28;20354;-79
2021/11/11 11:47:20;;;;;;;14.68;9.40;;;;;;;;;;5078654;28;20028;-87
2021/11/11 11:49:50;;;;;;;17.35;9.00;;;;;;;;;;5062299;28;20032;-86
2021/11/11 11:52:17;;;;;;;18.60;11.07;;;;;;;;;;5079066;28;20047;-87
2021/11/11 11:54:52;;;;;;;11.82;8.52;;;;;;;;;;5079072;28;20056;-94
2021/11/11 11:57:24;;;;;;;19.35;11.00;;;;;;;;;;5080622;28;20445;-92
2021/11/11 12:00:04;;;;;;;19.60;11.65;;;;;;;;;;5080030;28;20036;-88
2021/11/11 12:05:49;;;;;;;16.70;8.73;;;;;;;;;;5039138;28;20036;-91
2021/11/11 12:11:19;;;;;;;11.90;7.68;;;;;;;;;;5058896;28;20430;-91
2021/11/11 12:39:52;;;;;;;11.85;8.27;;;;;;;;;;4979548;28;20038;-91
2021/11/11 12:42:18;;;;;;;13.55;7.72;;;;;;;;;;4992868;28;20092;-91
2021/11/11 12:45:02;;;;;;;11.82;7.88;;;;;;;;;;4998716;28;20066;-90
2021/11/11 12:47:45;;;;;;;13.70;9.18;;;;;;;;;;4998824;28;20419;-91
2021/11/11 12:50:28;;;;;;;15.13;9.30;;;;;;;;;;4998537;28;20066;-90
2021/11/11 12:53:20;;;;;;;13.50;8.43;;;;;;;;;;4998598;28;20030;-90
2021/11/11 12:55:47;;;;;;;13.57;8.50;;;;;;;;;;4995859;28;20437;-91
2021/11/11 13:01:20;;;;;;;15.55;9.50;;;;;;;;;;4998934;28;20037;-88
2021/11/11 13:03:56;;;;;;;12.55;8.70;;;;;;;;;;4998549;28;20034;-89
2021/11/11 13:06:41;;;;;;;11.52;7.97;;;;;;;;;;5016423;28;20033;-89
2021/11/11 13:09:31;;;;;;;15.93;9.90;;;;;;;;;;5001862;28;20030;-89
2021/11/11 13:12:00;;;;;;;16.50;10.00;;;;;;;;;;5093510;28;20032;-90
2021/11/11 13:14:30;;;;;;;14.93;9.60;;;;;;;;;;5099258;28;20036;-89
2021/11/11 13:16:56;;;;;;;14.02;8.70;;;;;;;;;;5098514;28;20032;-89
2021/11/11 13:19:31;;;;;;;15.32;8.73;;;;;;;;;;5099346;28;20048;-90
2021/11/11 13:22:00;;;;;;;11.98;7.50;;;;;;;;;;5098633;28;20111;-90
2021/11/11 13:24:41;;;;;;;15.30;9.98;;;;;;;;;;5099603;28;20042;-90
2021/11/11 13:54:06;;;;;;;13.80;9.70;;;;;;;;;;5076936;28;20146;-90
2021/11/11 13:59:41;;;;;;;17.92;10.65;;;;;;;;;;5076959;28;20032;-89
2021/11/11 15:16:02;;;;;;;60.83;33.13;;;;;;;;;;5104511;28;20082;-88
2021/11/11 16:19:57;;;;;;;161.75;92.13;;;;;;;;;;5080090;28;20047;-86
2021/11/11 16:27:54;;;;;;;181.75;99.50;;;;;;;;;;5100547;28;20123;-86
2021/11/11 16:33:23;;;;;;;195.93;111.88;;;;;;;;;;5100515;28;20345;-86
2021/11/11 16:35:49;;;;;;;196.63;115.10;;;;;;;;;;5099206;28;20051;-85
2021/11/11 16:38:15;;;;;;;220.60;126.95;;;;;;;;;;5100365;28;20027;-85
2021/11/11 16:40:42;;;;;;;238.48;130.27;;;;;;;;;;5098934;28;20020;-85
2021/11/11 16:43:09;;;;;;;219.18;122.30;;;;;;;;;;5099176;28;20030;-85
2021/11/11 16:51:44;;;;;;;299.77;144.27;;;;;;;;;;5079788;28;20055;-85
2021/11/11 16:54:10;;;;;;;228.63;118.40;;;;;;;;;;5078962;28;20442;-85
2021/11/11 16:56:36;;;;;;;211.02;106.82;;;;;;;;;;5078338;28;20033;-85
2021/11/11 16:59:03;;;;;;;186.40;101.63;;;;;;;;;;5079232;28;20048;-86
2021/11/11 17:01:29;;;;;;;191.77;105.85;;;;;;;;;;5089667;28;20028;-81
2021/11/11 17:03:55;;;;;;;170.93;95.45;;;;;;;;;;5098917;28;20121;-86
2021/11/11 17:06:21;;;;;;;192.90;101.95;;;;;;;;;;5099493;28;20016;-85
2021/11/11 17:08:47;;;;;;;173.38;91.25;;;;;;;;;;5088542;28;20039;-85
2021/11/11 17:11:14;;;;;;;117.38;62.75;;;;;;;;;;5078993;28;20017;-85
2021/11/11 17:13:43;;;;;;;89.78;50.35;;;;;;;;;;5080627;28;20032;-83
2021/11/11 17:19:13;;;;;;;127.93;63.53;;;;;;;;;;5078936;28;20051;-84
2021/11/11 17:21:44;;;;;;;136.93;67.80;;;;;;;;;;5076657;28;20024;-84
2021/11/11 17:24:15;;;;;;;122.00;61.95;;;;;;;;;;5078797;28;20020;-84
2021/11/11 17:29:28;;;;;;;145.40;69.20;;;;;;;;;;5063004;28;20111;-87
2021/11/11 17:31:55;;;;;;;248.90;108.75;;;;;;;;;;5056935;28;20056;-86
2021/11/11 17:34:22;;;;;;;416.30;187.45;;;;;;;;;;5056915;28;20047;-86
2021/11/11 17:36:48;;;;;;;330.77;146.85;;;;;;;;;;5040340;28;20480;-86
2021/11/11 17:39:14;;;;;;;228.90;111.35;;;;;;;;;;5057041;28;20115;-87
2021/11/11 17:41:43;;;;;;;180.32;92.93;;;;;;;;;;5040357;28;20047;-87
2021/11/11 17:44:11;;;;;;;150.75;78.40;;;;;;;;;;5040284;28;20056;-87
2021/11/11 17:49:43;;;;;;;93.63;48.30;;;;;;;;;;5056992;28;20031;-86
2021/11/11 17:52:31;;;;;;;64.65;37.42;;;;;;;;;;5056725;28;20025;-86
2021/11/11 17:54:57;;;;;;;52.25;29.80;;;;;;;;;;5055928;28;20140;-86
2021/11/11 17:57:27;;;;;;;44.33;25.98;;;;;;;;;;5040118;28;20429;-86
2021/11/11 17:59:56;;;;;;;49.00;28.23;;;;;;;;;;5039420;28;20075;-86
2021/11/11 18:02:26;;;;;;;60.92;27.38;;;;;;;;;;5039103;28;20044;-86
2021/11/11 18:04:55;;;;;;;55.38;27.60;;;;;;;;;;5039085;28;20041;-86
2021/11/11 18:07:30;;;;;;;48.42;26.13;;;;;;;;;;5070704;28;20041;-88
2021/11/11 18:10:02;;;;;;;54.38;28.20;;;;;;;;;;5078023;28;20108;-86
2021/11/11 18:12:40;;;;;;;67.75;34.08;;;;;;;;;;5078260;28;20028;-87
2021/11/11 18:15:11;;;;;;;66.13;35.40;;;;;;;;;;5077853;28;20032;-87
2021/11/11 18:17:45;;;;;;;62.42;34.40;;;;;;;;;;5078362;28;20013;-87
2021/11/11 18:20:11;;;;;;;49.78;28.98;;;;;;;;;;5076817;28;20052;-87
2021/11/11 18:22:37;;;;;;;41.35;23.45;;;;;;;;;;5077307;28;20033;-86
2021/11/11 18:25:04;;;;;;;39.50;23.75;;;;;;;;;;5078139;28;20058;-86
2021/11/11 18:27:30;;;;;;;44.47;24.75;;;;;;;;;;5077865;28;20415;-86
2021/11/11 18:30:22;;;;;;;44.85;25.10;;;;;;;;;;5077123;28;20564;-87
2021/11/11 18:33:01;;;;;;;32.80;21.50;;;;;;;;;;5077677;28;20300;-86
2021/11/11 18:35:38;;;;;;;37.55;21.80;;;;;;;;;;5088498;28;20023;-88
2021/11/11 18:38:06;;;;;;;47.03;23.90;;;;;;;;;;5097139;28;20024;-86
2021/11/11 18:40:32;;;;;;;36.92;23.23;;;;;;;;;;5098278;28;20020;-87
2021/11/11 18:42:59;;;;;;;36.75;22.67;;;;;;;;;;5098225;28;20023;-87
2021/11/11 18:45:29;;;;;;;37.40;20.38;;;;;;;;;;5097819;28;20024;-87
2021/11/11 18:48:00;;;;;;;30.65;20.17;;;;;;;;;;5097205;28;20036;-86
2021/11/11 18:50:27;;;;;;;33.72;21.38;;;;;;;;;;5096856;28;20035;-85
2021/11/11 18:52:54;;;;;;;33.42;20.85;;;;;;;;;;5097700;28;20028;-85
2021/11/11 18:55:20;;;;;;;33.10;20.33;;;;;;;;;;5096708;28;20028;-85
2021/11/11 18:57:46;;;;;;;31.90;21.05;;;;;;;;;;5097264;28;20028;-84
2021/11/11 19:00:16;;;;;;;36.70;21.20;;;;;;;;;;5097488;28;20419;-85
2021/11/11 19:02:43;;;;;;;36.33;20.40;;;;;;;;;;5097842;28;20065;-85
2021/11/11 19:05:17;;;;;;;37.90;23.45;;;;;;;;;;5097298;28;20069;-85
2021/11/11 19:07:56;;;;;;;37.67;22.10;;;;;;;;;;5097905;28;20024;-86
2021/11/11 19:10:25;;;;;;;46.08;28.10;;;;;;;;;;5097873;28;20047;-85
2021/11/11 19:12:59;;;;;;;61.58;36.20;;;;;;;;;;5097943;28;20032;-85
2021/11/11 19:15:26;;;;;;;55.65;33.70;;;;;;;;;;5097881;28;20028;-85
2021/11/11 19:18:01;;;;;;;58.95;34.65;;;;;;;;;;5096191;28;20035;-84
2021/11/11 19:20:29;;;;;;;42.83;27.40;;;;;;;;;;5096421;28;20503;-86
2021/11/11 19:22:57;;;;;;;40.60;25.88;;;;;;;;;;5099295;28;20414;-86